Time;durP1;ratioP1;P1;durP2;ratioP2;P2;SDS_P1;SDS_P2;PMS_P1;PMS_P2;Temp;Humidity;BMP_temperature;BMP_pressure;BME280_temperature;BME280_humidity;BME280_pressure;Samples;Min_cycle;Max_cycle;Signal;HPM_P1;HPM_P2
2023/08/07 00:01:23;;;;;;;1.47;1.33;;;21.80;99.90;;;;;;5057684;28;20991;-55
2023/08/07 00:03:50;;;;;;;1.30;1.07;;;21.90;99.90;;;;;;5060494;28;20903;-55
2023/08/07 00:06:16;;;;;;;1.30;1.03;;;21.90;99.90;;;;;;5053906;28;20461;-62
2023/08/07 00:08:44;;;;;;;1.37;1.07;;;21.90;99.90;;;;;;5059241;28;21238;-54
2023/08/07 00:11:11;;;;;;;1.40;1.10;;;21.80;99.90;;;;;;5060421;28;20487;-52
2023/08/07 00:13:38;;;;;;;1.10;1.00;;;21.80;99.90;;;;;;5064261;28;20452;-52
2023/08/07 00:16:05;;;;;;;2.37;1.20;;;21.90;99.90;;;;;;5060017;28;20980;-54
2023/08/07 00:18:32;;;;;;;1.30;1.10;;;21.80;99.90;;;;;;5063111;28;20464;-55
2023/08/07 00:20:59;;;;;;;1.73;1.47;;;21.80;99.90;;;;;;5064871;28;20479;-57
2023/08/07 00:23:26;;;;;;;1.40;1.10;;;21.80;99.90;;;;;;5062436;28;20460;-61
2023/08/07 00:25:54;;;;;;;2.10;1.40;;;21.80;99.90;;;;;;5058747;28;20464;-65
2023/08/07 00:28:21;;;;;;;1.40;1.20;;;21.80;99.90;;;;;;5064050;28;20823;-53
2023/08/07 00:30:47;;;;;;;1.20;1.10;;;21.80;99.90;;;;;;5062615;28;20468;-58
2023/08/07 00:33:14;;;;;;;1.53;1.23;;;21.80;99.90;;;;;;5059476;28;20469;-54
2023/08/07 00:35:41;;;;;;;1.40;1.30;;;21.80;99.90;;;;;;5061253;28;20469;-58
2023/08/07 00:38:08;;;;;;;1.53;1.10;;;21.80;99.90;;;;;;5058286;28;20456;-61
2023/08/07 00:40:38;;;;;;;2.17;1.13;;;21.80;99.90;;;;;;5056837;28;20594;-54
2023/08/07 00:43:07;;;;;;;1.13;1.00;;;21.80;99.90;;;;;;5063212;28;20464;-61
2023/08/07 00:45:37;;;;;;;1.33;1.10;;;21.80;99.90;;;;;;5060340;28;20741;-57
2023/08/07 00:48:05;;;;;;;2.70;1.10;;;21.80;99.90;;;;;;5066588;28;21059;-56
2023/08/07 00:50:31;;;;;;;1.90;1.10;;;21.80;99.90;;;;;;5059904;28;20459;-56
2023/08/07 00:52:58;;;;;;;1.97;1.10;;;21.70;99.90;;;;;;5065089;28;21025;-55
2023/08/07 00:55:25;;;;;;;1.30;1.20;;;21.80;99.90;;;;;;5054942;28;20471;-54
2023/08/07 00:57:52;;;;;;;2.63;1.50;;;21.80;99.90;;;;;;5063712;28;20731;-59
2023/08/07 01:00:21;;;;;;;2.40;1.60;;;21.80;99.90;;;;;;5063741;28;20444;-62
2023/08/07 01:02:50;;;;;;;1.27;1.10;;;21.80;99.90;;;;;;5067412;28;20974;-61
2023/08/07 01:05:17;;;;;;;1.13;0.97;;;21.80;99.90;;;;;;5065203;28;20490;-53
2023/08/07 01:07:44;;;;;;;1.33;1.20;;;21.80;99.90;;;;;;5060550;28;20464;-56
2023/08/07 01:10:11;;;;;;;1.20;1.10;;;21.80;99.90;;;;;;5062719;28;20461;-58
2023/08/07 01:12:49;;;;;;;1.83;1.10;;;21.80;99.90;;;;;;5063803;28;20918;-58
2023/08/07 01:15:20;;;;;;;1.43;1.20;;;21.70;99.90;;;;;;5066025;28;20505;-59
2023/08/07 01:17:50;;;;;;;1.40;1.00;;;21.70;99.90;;;;;;5066816;28;20888;-53
2023/08/07 01:20:17;;;;;;;1.30;1.10;;;21.70;99.90;;;;;;5065617;28;20460;-64
2023/08/07 01:22:45;;;;;;;1.73;1.53;;;21.70;99.90;;;;;;5065286;28;20467;-62
2023/08/07 01:25:12;;;;;;;2.57;1.30;;;21.80;99.90;;;;;;5061349;28;21110;-57
2023/08/07 01:27:45;;;;;;;1.30;1.20;;;21.80;99.90;;;;;;5069044;28;20530;-55
2023/08/07 01:30:23;;;;;;;1.60;1.10;;;21.70;99.90;;;;;;5064360;28;20460;-55
2023/08/07 01:32:57;;;;;;;1.13;1.03;;;21.70;99.90;;;;;;5069938;28;20460;-56
2023/08/07 01:35:29;;;;;;;1.70;1.20;;;21.70;99.90;;;;;;5066277;28;20708;-55
2023/08/07 01:37:59;;;;;;;1.00;0.80;;;21.70;99.90;;;;;;5067781;28;20468;-53
2023/08/07 01:40:27;;;;;;;1.20;0.90;;;21.70;99.90;;;;;;5066881;28;20468;-56
2023/08/07 01:42:54;;;;;;;1.30;1.07;;;21.70;99.90;;;;;;5066880;28;20464;-57
2023/08/07 01:45:25;;;;;;;1.40;1.10;;;21.70;99.90;;;;;;5060730;28;20487;-55
2023/08/07 01:47:52;;;;;;;1.87;1.53;;;21.70;99.90;;;;;;5066389;28;20468;-56
2023/08/07 01:50:19;;;;;;;1.10;1.00;;;21.70;99.90;;;;;;5065311;28;20775;-54
2023/08/07 01:52:46;;;;;;;1.30;1.10;;;21.70;99.90;;;;;;5066751;28;20453;-56
2023/08/07 01:55:14;;;;;;;1.00;0.80;;;21.70;99.90;;;;;;5065970;28;20471;-56
2023/08/07 01:57:41;;;;;;;1.37;1.00;;;21.60;99.90;;;;;;5060849;28;20922;-57
2023/08/07 02:00:09;;;;;;;1.87;1.20;;;21.70;99.90;;;;;;5057344;28;20552;-58
2023/08/07 02:02:36;;;;;;;1.30;1.10;;;21.60;99.90;;;;;;5067062;28;20499;-53
2023/08/07 02:05:03;;;;;;;1.30;1.00;;;21.70;99.90;;;;;;5066776;28;21454;-57
2023/08/07 02:07:29;;;;;;;1.47;1.37;;;21.60;99.90;;;;;;5063884;28;20457;-52
2023/08/07 02:09:56;;;;;;;1.73;1.37;;;21.70;99.90;;;;;;5060998;28;20465;-55
2023/08/07 02:12:24;;;;;;;1.30;1.10;;;21.70;99.90;;;;;;5064302;28;20455;-60
2023/08/07 02:14:51;;;;;;;1.27;1.00;;;21.60;99.90;;;;;;5058793;28;20466;-56
2023/08/07 02:17:17;;;;;;;1.37;1.13;;;21.70;99.90;;;;;;5058610;28;21718;-55
2023/08/07 02:19:44;;;;;;;1.40;1.17;;;21.60;99.90;;;;;;5063185;28;20451;-58
2023/08/07 02:22:11;;;;;;;1.20;1.10;;;21.60;99.90;;;;;;5058628;28;20462;-62
2023/08/07 02:24:37;;;;;;;1.30;1.20;;;21.60;99.90;;;;;;5060414;28;20827;-57
2023/08/07 02:27:05;;;;;;;1.33;1.20;;;21.60;99.90;;;;;;5059962;28;20636;-61
2023/08/07 02:29:34;;;;;;;1.63;1.10;;;21.60;99.90;;;;;;5058839;28;21242;-60
2023/08/07 02:32:00;;;;;;;1.40;1.10;;;21.60;99.90;;;;;;5064262;28;21266;-57
2023/08/07 02:34:27;;;;;;;1.20;1.00;;;21.60;99.90;;;;;;5065455;28;20953;-57
2023/08/07 02:36:54;;;;;;;1.03;0.93;;;21.60;99.90;;;;;;5069932;28;20870;-54
2023/08/07 02:39:20;;;;;;;1.43;1.13;;;21.60;99.90;;;;;;5069934;28;20451;-60
2023/08/07 02:41:47;;;;;;;1.43;1.20;;;21.60;99.90;;;;;;5069691;28;20471;-61
2023/08/07 02:44:14;;;;;;;1.30;1.20;;;21.60;99.90;;;;;;5070212;28;21163;-60
2023/08/07 02:46:42;;;;;;;1.97;1.00;;;21.60;99.90;;;;;;5065747;28;21109;-53
2023/08/07 02:49:08;;;;;;;1.00;0.90;;;21.60;99.90;;;;;;5068985;28;20772;-52
2023/08/07 02:51:35;;;;;;;1.13;0.93;;;21.60;99.90;;;;;;5068919;28;20830;-55
2023/08/07 02:54:02;;;;;;;1.10;0.93;;;21.60;99.90;;;;;;5064707;28;21291;-54
2023/08/07 02:56:29;;;;;;;1.30;1.07;;;21.60;99.90;;;;;;5065132;28;22095;-58
2023/08/07 02:58:58;;;;;;;1.10;1.00;;;21.60;99.90;;;;;;5068164;28;20480;-54
2023/08/07 03:01:24;;;;;;;1.20;1.00;;;21.60;99.90;;;;;;5064429;28;20955;-58
2023/08/07 03:03:52;;;;;;;1.47;1.33;;;21.60;99.90;;;;;;5065542;28;20464;-56
2023/08/07 03:06:19;;;;;;;1.20;1.10;;;21.60;99.90;;;;;;5063140;28;20504;-55
2023/08/07 03:08:46;;;;;;;4.23;1.10;;;21.60;99.90;;;;;;5067263;28;20456;-59
2023/08/07 03:11:12;;;;;;;1.67;1.00;;;21.60;99.90;;;;;;5062007;28;20457;-59
2023/08/07 03:13:39;;;;;;;1.33;1.10;;;21.60;99.90;;;;;;5065770;28;20459;-57
2023/08/07 03:16:07;;;;;;;2.00;1.40;;;21.60;99.90;;;;;;5057629;28;20474;-57
2023/08/07 03:18:34;;;;;;;1.30;1.20;;;21.60;99.90;;;;;;5064825;28;20459;-57
2023/08/07 03:21:02;;;;;;;1.27;1.00;;;21.60;99.90;;;;;;5063612;28;21370;-57
2023/08/07 03:23:29;;;;;;;1.13;1.03;;;21.60;99.90;;;;;;5066022;28;20683;-59
2023/08/07 03:26:03;;;;;;;1.70;1.40;;;21.60;99.90;;;;;;5060773;28;20479;-57
2023/08/07 03:28:30;;;;;;;1.00;0.90;;;21.60;99.90;;;;;;5065336;28;20966;-55
2023/08/07 03:30:57;;;;;;;1.10;1.00;;;21.50;99.90;;;;;;5063558;28;20859;-56
2023/08/07 03:33:23;;;;;;;1.30;1.20;;;21.50;99.90;;;;;;5064768;28;21217;-58
2023/08/07 03:35:50;;;;;;;1.60;1.00;;;21.50;99.90;;;;;;5068477;28;20472;-59
2023/08/07 03:38:18;;;;;;;1.20;1.10;;;21.50;99.90;;;;;;5064243;28;20464;-57
2023/08/07 03:40:45;;;;;;;1.30;1.00;;;21.50;99.90;;;;;;5066952;28;20460;-54
2023/08/07 03:43:11;;;;;;;2.07;1.10;;;21.50;99.90;;;;;;5065228;28;20467;-58
2023/08/07 03:45:39;;;;;;;1.40;1.30;;;21.50;99.90;;;;;;5064591;28;20472;-54
2023/08/07 03:48:05;;;;;;;1.40;1.00;;;21.50;99.90;;;;;;5063353;28;20457;-59
2023/08/07 03:50:34;;;;;;;1.20;1.00;;;21.50;99.90;;;;;;5064935;28;20463;-53
2023/08/07 03:53:01;;;;;;;1.30;1.13;;;21.50;99.90;;;;;;5063500;28;20457;-57
2023/08/07 03:55:29;;;;;;;1.17;1.07;;;21.50;99.90;;;;;;5065652;28;20460;-54
2023/08/07 03:57:56;;;;;;;1.30;1.10;;;21.50;99.90;;;;;;5063956;28;20480;-58
2023/08/07 04:00:23;;;;;;;1.17;1.00;;;21.50;99.90;;;;;;5060874;28;20464;-54
2023/08/07 04:02:49;;;;;;;1.10;0.90;;;21.50;99.90;;;;;;5064286;28;20467;-59
2023/08/07 04:05:16;;;;;;;1.57;1.20;;;21.50;99.90;;;;;;5064323;28;20575;-57
2023/08/07 04:07:43;;;;;;;1.17;1.00;;;21.50;99.90;;;;;;5065430;28;20468;-56
2023/08/07 04:10:10;;;;;;;1.43;1.23;;;21.50;99.90;;;;;;5063899;28;20460;-57
2023/08/07 04:12:38;;;;;;;1.20;1.03;;;21.50;99.90;;;;;;5067212;28;20461;-57
2023/08/07 04:15:06;;;;;;;1.27;0.83;;;21.50;99.90;;;;;;5059285;28;20473;-57
2023/08/07 04:17:33;;;;;;;1.10;0.90;;;21.50;99.90;;;;;;5062151;28;20466;-54
2023/08/07 04:20:00;;;;;;;1.63;1.20;;;21.50;99.90;;;;;;5062004;28;20467;-60
2023/08/07 04:22:26;;;;;;;1.50;1.27;;;21.50;99.90;;;;;;5060340;28;20460;-59
2023/08/07 04:24:53;;;;;;;1.73;1.03;;;21.50;99.90;;;;;;5064110;28;22714;-61
2023/08/07 04:27:20;;;;;;;1.30;1.20;;;21.50;99.90;;;;;;5064630;28;20484;-61
2023/08/07 04:29:48;;;;;;;1.13;1.00;;;21.40;99.90;;;;;;5061719;28;20470;-57
2023/08/07 04:32:14;;;;;;;1.67;1.07;;;21.50;99.90;;;;;;5058603;28;20870;-59
2023/08/07 04:34:41;;;;;;;1.73;1.50;;;21.50;99.90;;;;;;5061592;28;20468;-56
2023/08/07 04:37:08;;;;;;;1.30;1.17;;;21.50;99.90;;;;;;5064647;28;20464;-59
2023/08/07 04:39:35;;;;;;;1.63;1.17;;;21.50;99.90;;;;;;5067783;28;20463;-61
2023/08/07 04:42:02;;;;;;;1.53;1.27;;;21.40;99.90;;;;;;5065008;28;20790;-57
2023/08/07 04:44:29;;;;;;;1.20;1.00;;;21.40;99.90;;;;;;5062363;28;20858;-58
2023/08/07 04:46:57;;;;;;;3.95;1.30;;;21.50;99.90;;;;;;5058795;28;20479;-55
2023/08/07 04:49:23;;;;;;;1.17;0.90;;;21.40;99.90;;;;;;5064259;28;20201;-54
2023/08/07 04:51:50;;;;;;;1.10;1.00;;;21.50;99.90;;;;;;5062609;28;20459;-55
2023/08/07 04:54:17;;;;;;;1.10;0.90;;;21.50;99.90;;;;;;5060755;28;20935;-59
2023/08/07 04:56:44;;;;;;;1.00;0.90;;;21.50;99.90;;;;;;5056920;28;20475;-53
2023/08/07 04:59:11;;;;;;;1.20;0.93;;;21.50;99.90;;;;;;5062765;28;21155;-51
2023/08/07 05:01:38;;;;;;;1.30;1.00;;;21.40;99.90;;;;;;5062406;28;21401;-55
2023/08/07 05:04:06;;;;;;;1.33;1.10;;;21.40;99.90;;;;;;5062992;28;20835;-60
2023/08/07 05:06:33;;;;;;;1.00;0.80;;;21.40;99.90;;;;;;5061014;28;20480;-58
2023/08/07 05:09:00;;;;;;;1.40;1.30;;;21.40;99.90;;;;;;5056302;28;20460;-60
2023/08/07 05:11:26;;;;;;;1.40;0.80;;;21.40;99.90;;;;;;5063874;28;20854;-53
2023/08/07 05:13:53;;;;;;;1.17;0.87;;;21.40;99.90;;;;;;5059720;28;21440;-54
2023/08/07 05:16:20;;;;;;;1.30;1.10;;;21.40;99.90;;;;;;5055860;28;20464;-54
2023/08/07 05:18:46;;;;;;;1.10;0.90;;;21.40;99.90;;;;;;5061112;28;20962;-57
2023/08/07 05:21:14;;;;;;;1.43;1.20;;;21.40;99.90;;;;;;5064561;28;20451;-59
2023/08/07 05:23:41;;;;;;;1.10;0.90;;;21.40;99.90;;;;;;5063099;28;20467;-61
2023/08/07 05:26:08;;;;;;;1.40;1.03;;;21.40;99.90;;;;;;5059297;28;20479;-56
2023/08/07 05:28:34;;;;;;;1.10;1.00;;;21.40;99.90;;;;;;5060506;28;20839;-58
2023/08/07 05:31:01;;;;;;;1.30;1.03;;;21.40;99.90;;;;;;5059890;28;20459;-55
2023/08/07 05:33:28;;;;;;;1.10;0.90;;;21.40;99.90;;;;;;5060664;28;20463;-55
2023/08/07 05:35:55;;;;;;;1.10;0.93;;;21.40;99.90;;;;;;5063512;28;20470;-58
2023/08/07 05:38:23;;;;;;;1.30;0.90;;;21.40;99.90;;;;;;5063607;28;20461;-55
2023/08/07 05:40:50;;;;;;;1.10;0.90;;;21.40;99.90;;;;;;5062173;28;20464;-56
2023/08/07 05:43:17;;;;;;;1.20;1.00;;;21.40;99.90;;;;;;5060185;28;20522;-59
2023/08/07 05:45:46;;;;;;;1.60;0.93;;;21.40;99.90;;;;;;5063987;28;20487;-55
2023/08/07 05:48:13;;;;;;;1.30;1.07;;;21.40;99.90;;;;;;5062733;28;20936;-55
2023/08/07 05:50:39;;;;;;;1.20;1.00;;;21.40;99.90;;;;;;5060639;28;20549;-58
2023/08/07 05:53:06;;;;;;;1.07;0.90;;;21.40;99.90;;;;;;5060342;28;20848;-55
2023/08/07 05:55:34;;;;;;;1.20;0.90;;;21.40;99.90;;;;;;5061897;28;20616;-52
2023/08/07 05:58:01;;;;;;;1.00;0.87;;;21.40;99.90;;;;;;5062829;28;20484;-56
2023/08/07 06:00:28;;;;;;;1.50;1.30;;;21.40;99.90;;;;;;5063434;28;20464;-56
2023/08/07 06:02:55;;;;;;;1.30;0.90;;;21.40;99.90;;;;;;5061837;28;20456;-62
2023/08/07 06:05:21;;;;;;;1.20;0.80;;;21.40;99.90;;;;;;5058264;28;20209;-52
2023/08/07 06:07:48;;;;;;;1.03;0.90;;;21.40;99.90;;;;;;5061678;28;20981;-51
2023/08/07 06:10:15;;;;;;;1.20;1.00;;;21.40;99.90;;;;;;5066998;28;20454;-56
2023/08/07 06:12:43;;;;;;;1.73;1.20;;;21.40;99.90;;;;;;5066449;28;20448;-59
2023/08/07 06:15:10;;;;;;;1.10;0.80;;;21.40;99.90;;;;;;5062877;28;20472;-57
2023/08/07 06:17:39;;;;;;;1.27;1.17;;;21.40;99.90;;;;;;5067484;28;21102;-57
2023/08/07 06:20:09;;;;;;;1.50;1.00;;;21.40;99.90;;;;;;5061409;28;20563;-52
2023/08/07 06:22:35;;;;;;;1.30;1.20;;;21.40;99.90;;;;;;5066616;28;20888;-52
2023/08/07 06:25:02;;;;;;;1.30;1.13;;;21.30;99.90;;;;;;5067412;28;20489;-58
2023/08/07 06:27:30;;;;;;;1.20;1.10;;;21.40;99.90;;;;;;5064219;28;20930;-57
2023/08/07 06:29:58;;;;;;;1.20;0.90;;;21.40;99.90;;;;;;5066433;28;20465;-61
2023/08/07 06:32:26;;;;;;;1.43;0.90;;;21.30;99.90;;;;;;5065112;28;20452;-56
2023/08/07 06:34:52;;;;;;;1.48;1.08;;;21.30;99.90;;;;;;5062188;28;20468;-54
2023/08/07 06:37:19;;;;;;;1.20;1.05;;;21.40;99.90;;;;;;5060889;28;20818;-54
2023/08/07 06:39:46;;;;;;;1.00;0.83;;;21.40;99.90;;;;;;5063705;28;20197;-55
2023/08/07 06:42:13;;;;;;;1.10;0.93;;;21.30;99.90;;;;;;5063036;28;20483;-55
2023/08/07 06:44:40;;;;;;;1.10;0.90;;;21.30;99.90;;;;;;5059863;28;20460;-53
2023/08/07 06:47:09;;;;;;;1.10;0.80;;;21.30;99.90;;;;;;5055072;28;20487;-55
2023/08/07 06:49:36;;;;;;;1.10;0.80;;;21.40;99.90;;;;;;5059290;28;20460;-57
2023/08/07 06:52:02;;;;;;;1.50;0.80;;;21.30;99.90;;;;;;5057913;28;20539;-59
2023/08/07 06:54:29;;;;;;;1.30;1.10;;;21.30;99.90;;;;;;5053815;28;20455;-53
2023/08/07 06:56:56;;;;;;;1.95;1.23;;;21.30;99.90;;;;;;5061635;28;20472;-58
2023/08/07 06:59:23;;;;;;;1.90;1.10;;;21.30;99.90;;;;;;5055729;28;20190;-57
2023/08/07 07:01:50;;;;;;;1.30;1.00;;;21.30;99.90;;;;;;5062736;28;20649;-52
2023/08/07 07:04:19;;;;;;;2.17;1.07;;;21.30;99.90;;;;;;5061503;28;20464;-62
2023/08/07 07:06:45;;;;;;;1.20;1.10;;;21.30;99.90;;;;;;5064978;28;20814;-54
2023/08/07 07:09:15;;;;;;;1.30;1.13;;;21.20;99.90;;;;;;5061971;28;21039;-50
2023/08/07 07:11:43;;;;;;;1.87;0.90;;;21.20;99.90;;;;;;5062841;28;20460;-54
2023/08/07 07:14:10;;;;;;;1.40;1.20;;;21.30;99.90;;;;;;5062219;28;20460;-60
2023/08/07 07:16:37;;;;;;;2.17;1.05;;;21.30;99.90;;;;;;5056318;28;20471;-56
2023/08/07 07:19:04;;;;;;;2.13;1.70;;;21.20;99.90;;;;;;5060838;28;20201;-54
2023/08/07 07:21:33;;;;;;;1.40;1.10;;;21.20;99.90;;;;;;5064763;28;20452;-57
2023/08/07 07:24:00;;;;;;;2.05;1.10;;;21.20;99.90;;;;;;5057137;28;20531;-54
2023/08/07 07:26:30;;;;;;;2.83;1.30;;;21.20;99.90;;;;;;5063503;28;20527;-53
2023/08/07 07:28:57;;;;;;;2.15;1.10;;;21.20;99.90;;;;;;5065405;28;20534;-53
2023/08/07 07:31:24;;;;;;;4.10;1.13;;;21.20;99.90;;;;;;5063610;28;20295;-59
2023/08/07 07:33:50;;;;;;;1.83;1.10;;;21.20;99.90;;;;;;5063101;28;20465;-55
2023/08/07 07:36:18;;;;;;;3.15;1.40;;;21.20;99.90;;;;;;5062112;28;20225;-55
2023/08/07 07:38:48;;;;;;;1.27;1.10;;;21.20;99.90;;;;;;5061563;28;20194;-57
2023/08/07 07:41:15;;;;;;;1.90;1.30;;;21.20;99.90;;;;;;5061073;28;20472;-54
2023/08/07 07:43:42;;;;;;;1.27;1.10;;;21.20;99.90;;;;;;5062097;28;20465;-50
2023/08/07 07:46:08;;;;;;;1.85;1.30;;;21.30;99.90;;;;;;5061639;28;20869;-52
2023/08/07 07:48:35;;;;;;;2.85;1.40;;;21.30;99.90;;;;;;5064099;28;20194;-48
2023/08/07 07:51:03;;;;;;;1.67;1.30;;;21.20;99.90;;;;;;5062715;28;20194;-52
2023/08/07 07:53:30;;;;;;;2.28;1.20;;;21.20;99.90;;;;;;5059557;28;20464;-53
2023/08/07 07:55:58;;;;;;;1.73;1.10;;;21.30;99.90;;;;;;5059382;28;20202;-46
2023/08/07 07:58:25;;;;;;;3.57;1.77;;;21.30;99.90;;;;;;5061669;28;20469;-51
2023/08/07 08:00:53;;;;;;;2.40;1.50;;;21.20;99.90;;;;;;5063037;28;20460;-50
2023/08/07 08:03:20;;;;;;;5.00;1.20;;;21.30;99.90;;;;;;5061974;28;20464;-54
2023/08/07 08:05:49;;;;;;;1.40;1.10;;;21.20;99.90;;;;;;5060991;28;20733;-50
2023/08/07 08:08:16;;;;;;;1.23;1.00;;;21.20;99.90;;;;;;5058187;28;20229;-57
2023/08/07 08:10:43;;;;;;;1.90;1.08;;;21.20;99.90;;;;;;5060945;28;20256;-50
2023/08/07 08:13:12;;;;;;;1.40;1.10;;;21.30;99.90;;;;;;5062181;28;20198;-54
2023/08/07 08:15:38;;;;;;;2.57;1.40;;;21.30;99.90;;;;;;5056155;28;20201;-49
2023/08/07 08:18:05;;;;;;;2.57;1.30;;;21.30;99.90;;;;;;5055843;28;20471;-52
2023/08/07 08:20:32;;;;;;;2.33;1.10;;;21.30;99.90;;;;;;5061632;28;20642;-55
2023/08/07 08:22:59;;;;;;;7.68;1.63;;;21.30;99.90;;;;;;5058336;28;20456;-59
2023/08/07 08:25:26;;;;;;;1.70;1.23;;;21.30;99.90;;;;;;5061337;28;20206;-51
2023/08/07 08:27:53;;;;;;;2.17;1.13;;;21.30;99.90;;;;;;5052161;28;20218;-47
2023/08/07 08:30:21;;;;;;;2.13;1.20;;;21.20;99.90;;;;;;5051977;28;20915;-50
2023/08/07 08:32:48;;;;;;;1.95;1.33;;;21.30;99.90;;;;;;5057331;28;20463;-54
2023/08/07 08:35:14;;;;;;;2.55;1.55;;;21.30;99.90;;;;;;5057122;28;20318;-51
2023/08/07 08:37:41;;;;;;;1.73;1.20;;;21.30;99.90;;;;;;5058916;28;20596;-51
2023/08/07 08:40:11;;;;;;;1.67;1.30;;;21.20;99.90;;;;;;5059329;28;20975;-51
2023/08/07 08:42:40;;;;;;;1.90;1.30;;;21.30;99.90;;;;;;5060736;28;20202;-51
2023/08/07 08:45:10;;;;;;;2.08;1.10;;;21.20;99.90;;;;;;5057408;28;20718;-51
2023/08/07 08:47:39;;;;;;;2.17;0.90;;;21.20;99.90;;;;;;5062285;28;20225;-53
2023/08/07 08:50:09;;;;;;;4.43;1.87;;;21.30;99.90;;;;;;5057788;28;20453;-54
2023/08/07 08:52:37;;;;;;;2.42;1.80;;;21.20;99.90;;;;;;5063032;28;20457;-46
2023/08/07 08:55:06;;;;;;;3.70;2.40;;;21.30;99.90;;;;;;5049679;28;20659;-58
2023/08/07 08:57:34;;;;;;;3.20;1.90;;;21.20;99.90;;;;;;5055786;28;21052;-49
2023/08/07 09:00:04;;;;;;;7.35;3.95;;;21.20;99.90;;;;;;5054844;28;20972;-50
2023/08/07 09:02:31;;;;;;;8.23;4.80;;;21.20;99.90;;;;;;5056771;28;20191;-59
2023/08/07 09:04:59;;;;;;;11.20;6.53;;;21.30;99.90;;;;;;5056302;28;20210;-55
2023/08/07 09:07:27;;;;;;;25.47;14.13;;;21.30;99.90;;;;;;5056208;28;20932;-62
2023/08/07 09:09:56;;;;;;;31.50;18.87;;;21.30;99.90;;;;;;5060702;28;20456;-59
2023/08/07 09:12:30;;;;;;;46.17;25.45;;;21.30;99.90;;;;;;5059034;28;20464;-61
2023/08/07 09:14:58;;;;;;;41.67;22.75;;;21.30;99.90;;;;;;5056555;28;20197;-61
2023/08/07 09:17:26;;;;;;;37.30;23.80;;;21.30;99.90;;;;;;5058139;28;20526;-59
2023/08/07 09:19:54;;;;;;;45.17;26.90;;;21.40;99.90;;;;;;5056647;28;20980;-60
2023/08/07 09:22:22;;;;;;;61.33;33.50;;;21.40;99.90;;;;;;5055218;28;20463;-64
2023/08/07 09:24:49;;;;;;;60.73;33.73;;;21.40;99.90;;;;;;5051108;28;20461;-60
2023/08/07 09:27:16;;;;;;;67.67;34.13;;;21.40;99.90;;;;;;5054922;28;20472;-62
2023/08/07 09:29:44;;;;;;;63.97;34.67;;;21.40;99.90;;;;;;5040773;28;20460;-71
2023/08/07 09:32:13;;;;;;;69.70;36.87;;;21.40;99.90;;;;;;5037136;28;20464;-64
2023/08/07 09:34:40;;;;;;;53.80;30.60;;;21.40;99.90;;;;;;5040490;28;20483;-66
2023/08/07 09:37:08;;;;;;;54.30;29.07;;;21.40;99.90;;;;;;5046722;28;20455;-66
2023/08/07 09:39:36;;;;;;;55.20;30.37;;;21.40;99.90;;;;;;5047152;28;20451;-66
2023/08/07 09:42:04;;;;;;;43.57;27.83;;;21.50;99.90;;;;;;5051054;28;20535;-65
2023/08/07 09:44:37;;;;;;;51.90;28.50;;;21.50;99.90;;;;;;5044166;28;20513;-70
2023/08/07 09:47:13;;;;;;;48.13;27.77;;;21.50;99.90;;;;;;5044449;28;20571;-70
2023/08/07 09:49:40;;;;;;;49.03;27.70;;;21.60;99.90;;;;;;5047071;28;20585;-60
2023/08/07 09:52:08;;;;;;;54.63;28.70;;;21.60;99.90;;;;;;5049988;28;20487;-58
2023/08/07 09:54:36;;;;;;;45.20;26.60;;;21.60;99.90;;;;;;5061815;28;20586;-65
2023/08/07 09:57:04;;;;;;;49.40;28.40;;;21.60;99.90;;;;;;5063903;28;20486;-53
2023/08/07 09:59:33;;;;;;;47.30;25.63;;;21.70;99.90;;;;;;5049427;28;20460;-58
2023/08/07 10:02:01;;;;;;;38.47;24.63;;;21.70;99.90;;;;;;5056948;28;20982;-58
2023/08/07 10:04:29;;;;;;;42.00;23.70;;;21.70;99.90;;;;;;5056703;28;20560;-50
2023/08/07 10:06:56;;;;;;;35.90;22.83;;;21.80;99.90;;;;;;5056456;28;20488;-60
2023/08/07 10:09:23;;;;;;;32.17;17.80;;;21.80;99.90;;;;;;5051781;28;21083;-68
2023/08/07 10:11:51;;;;;;;38.60;21.00;;;21.80;99.90;;;;;;5062955;28;21492;-56
2023/08/07 10:14:19;;;;;;;31.77;20.73;;;21.80;99.90;;;;;;5066857;28;20460;-60
2023/08/07 10:16:47;;;;;;;33.97;20.73;;;21.90;99.90;;;;;;5065422;28;20460;-60
2023/08/07 10:19:14;;;;;;;39.03;20.27;;;21.90;99.90;;;;;;5061789;28;20486;-61
2023/08/07 10:21:41;;;;;;;39.13;21.07;;;21.90;99.90;;;;;;5063836;28;20935;-65
2023/08/07 10:24:10;;;;;;;36.10;19.33;;;21.90;99.90;;;;;;5059180;28;20471;-57
2023/08/07 10:26:42;;;;;;;33.63;21.07;;;22.00;99.90;;;;;;5064079;28;20461;-63
2023/08/07 10:29:14;;;;;;;31.90;18.80;;;22.00;99.90;;;;;;5064180;28;20471;-51
2023/08/07 10:31:42;;;;;;;33.40;19.80;;;22.00;99.90;;;;;;5051264;28;20460;-61
2023/08/07 10:34:09;;;;;;;29.13;18.40;;;22.10;99.90;;;;;;5055717;28;20466;-59
2023/08/07 10:36:38;;;;;;;29.93;17.93;;;22.10;99.90;;;;;;5059187;28;21404;-59
2023/08/07 10:39:09;;;;;;;31.90;20.23;;;22.10;99.90;;;;;;5058037;28;20815;-61
2023/08/07 10:41:40;;;;;;;24.33;16.80;;;22.20;99.90;;;;;;5058750;28;20471;-63
2023/08/07 10:44:19;;;;;;;23.73;16.30;;;22.20;99.90;;;;;;5058751;28;20483;-69
2023/08/07 10:46:50;;;;;;;26.20;16.40;;;22.20;99.90;;;;;;5052756;28;20462;-59
2023/08/07 10:49:36;;;;;;;28.47;16.80;;;22.20;99.90;;;;;;5058788;28;20482;-57
2023/08/07 10:52:05;;;;;;;26.27;16.90;;;22.20;99.90;;;;;;5057675;28;20648;-54
2023/08/07 10:54:41;;;;;;;28.73;15.90;;;22.20;99.90;;;;;;5059277;28;20453;-56
2023/08/07 10:57:11;;;;;;;22.63;14.40;;;22.20;99.90;;;;;;5060916;28;20530;-67
2023/08/07 10:59:44;;;;;;;28.00;16.37;;;22.30;99.90;;;;;;5057220;28;20468;-61
2023/08/07 11:02:14;;;;;;;21.93;14.77;;;22.30;99.90;;;;;;5061402;28;20457;-65
2023/08/07 11:04:41;;;;;;;23.47;13.23;;;22.30;99.90;;;;;;5054594;28;20469;-60
2023/08/07 11:07:08;;;;;;;21.37;14.27;;;22.30;99.90;;;;;;5055814;28;20472;-68
2023/08/07 11:09:35;;;;;;;24.77;15.90;;;22.30;99.90;;;;;;5061978;28;20481;-57
2023/08/07 11:12:02;;;;;;;22.17;13.60;;;22.40;99.90;;;;;;5059023;28;20584;-60
2023/08/07 11:14:29;;;;;;;24.37;14.53;;;22.40;99.90;;;;;;5058490;28;20975;-50
2023/08/07 11:16:57;;;;;;;18.57;12.53;;;22.40;99.90;;;;;;5055421;28;20463;-56
2023/08/07 11:19:24;;;;;;;18.93;13.60;;;22.40;99.90;;;;;;5061759;28;20457;-60
2023/08/07 11:21:51;;;;;;;23.23;13.20;;;22.40;99.90;;;;;;5060112;28;20465;-62
2023/08/07 11:24:20;;;;;;;18.50;12.97;;;22.40;99.90;;;;;;5058106;28;21231;-54
2023/08/07 11:26:46;;;;;;;18.90;11.63;;;22.50;99.90;;;;;;5061306;28;20456;-52
2023/08/07 11:29:17;;;;;;;21.07;12.00;;;22.50;99.90;;;;;;5062213;28;20481;-56
2023/08/07 11:31:44;;;;;;;19.60;12.23;;;22.50;99.90;;;;;;5060119;28;20476;-57
2023/08/07 11:34:12;;;;;;;16.20;11.27;;;22.50;99.90;;;;;;5057456;28;21174;-54
2023/08/07 11:36:42;;;;;;;20.03;11.20;;;22.50;99.90;;;;;;5062069;28;21037;-56
2023/08/07 11:39:09;;;;;;;19.43;11.70;;;22.50;99.90;;;;;;5060814;28;20551;-59
2023/08/07 11:41:36;;;;;;;15.60;11.13;;;22.50;99.90;;;;;;5060446;28;20468;-50
2023/08/07 11:44:02;;;;;;;16.23;10.97;;;22.60;99.90;;;;;;5053556;28;20456;-54
2023/08/07 11:46:30;;;;;;;20.40;11.27;;;22.60;99.90;;;;;;5059016;28;20459;-59
2023/08/07 11:48:57;;;;;;;16.07;10.73;;;22.60;99.90;;;;;;5059105;28;20796;-57
2023/08/07 11:51:25;;;;;;;12.83;9.30;;;22.60;99.90;;;;;;5059270;28;20556;-56
2023/08/07 11:53:56;;;;;;;17.63;9.40;;;22.60;99.90;;;;;;5058361;28;21418;-57
2023/08/07 11:56:23;;;;;;;15.37;10.90;;;22.60;99.90;;;;;;5051790;28;20845;-52
2023/08/07 11:58:51;;;;;;;15.40;10.13;;;22.60;99.90;;;;;;5056061;28;21002;-53
2023/08/07 12:01:20;;;;;;;16.53;10.23;;;22.60;99.90;;;;;;5047336;28;20463;-56
2023/08/07 12:03:53;;;;;;;16.80;10.00;;;22.60;99.90;;;;;;5054024;28;20469;-63
2023/08/07 12:06:20;;;;;;;12.70;9.73;;;22.70;99.90;;;;;;5042064;28;21337;-52
2023/08/07 12:08:50;;;;;;;24.07;10.43;;;22.70;99.90;;;;;;5051767;28;20490;-61
2023/08/07 12:11:17;;;;;;;31.47;11.50;;;22.70;99.90;;;;;;5057077;28;21004;-57
2023/08/07 12:13:45;;;;;;;23.47;10.33;;;22.70;99.90;;;;;;5058552;28;20460;-56
2023/08/07 12:16:15;;;;;;;25.00;9.20;;;22.70;99.90;;;;;;5056734;28;20460;-48
2023/08/07 12:18:45;;;;;;;16.37;8.67;;;22.70;99.90;;;;;;5057456;28;20536;-51
2023/08/07 12:21:11;;;;;;;21.93;10.37;;;22.70;99.90;;;;;;5055457;28;20458;-51
2023/08/07 12:23:38;;;;;;;27.87;9.93;;;22.80;99.90;;;;;;5057988;28;20468;-51
2023/08/07 12:26:07;;;;;;;17.43;8.67;;;22.70;99.90;;;;;;5055851;28;20469;-64
2023/08/07 12:28:34;;;;;;;30.50;10.30;;;22.70;99.90;;;;;;5053700;28;20476;-47
2023/08/07 12:31:00;;;;;;;20.00;9.50;;;22.80;99.90;;;;;;5056674;28;20476;-56
2023/08/07 12:33:27;;;;;;;11.67;4.50;;;22.80;99.90;;;;;;5054184;28;20468;-53
2023/08/07 12:35:54;;;;;;;8.33;2.70;;;22.80;99.90;;;;;;5061261;28;20812;-57
2023/08/07 12:38:21;;;;;;;4.97;2.87;;;22.70;98.60;;;;;;5062583;28;20456;-56
2023/08/07 12:40:48;;;;;;;4.83;2.87;;;22.60;98.00;;;;;;5059032;28;20463;-57
2023/08/07 12:43:16;;;;;;;7.07;2.93;;;22.60;97.00;;;;;;5058350;28;20472;-55